KLFI/LFI METAR and TAF weather

Enter ICAO airport designator
Station Type Date Time Source
KLFI METAR 2020/01/28 20:56 UTC NOAA

KLFI 282056Z AUTO 34008KT 10SM OVC050 08/M02 A2994 RMK AO2 SLP145 T00791019 53003 $


Station Type Date Time Source
KLFI Decoded METAR 2020/01/28 20:56 UTC NOAA

Langley Air Force Base, VA, United States (KLFI) 37-05N 076-21W 6M
Jan 28, 2020 - 03:56 PM EST / 2020.01.28 2056 UTC
Wind: from the NNW (340 degrees) at 9 MPH (8 KT):0
Visibility: 10 mile(s):0
Sky conditions: overcast
Temperature: 46.2 F (7.9 C)
Dew Point: 28.6 F (-1.9 C)
Relative Humidity: 49%
Pressure (altimeter): 29.94 in. Hg (1013 hPa)
Pressure tendency: 0.01 inches (0.3 hPa) higher than three hours ago
ob: KLFI 282056Z AUTO 34008KT 10SM OVC050 08/M02 A2994 RMK AO2 SLP145 T00791019 53003
cycle: 21

Station Type Date Time Source
KLFI TAF 2020/01/28 18:03 UTC NOAA

TAF KLFI 281800Z 2818/2924 36012G18KT 9999 BKN040 QNH2992INS
BECMG 2822/2823 34009KT 9999 BKN040 QNH2997INS
BECMG 2913/2914 35012KT 9999 FEW035 QNH3010INS TX10/2820Z TN02/2911Z

Example: see airport list